sensor_id;sensor_type;location;lat;lon;timestamp;temperature;humidity
65034;DHT22;51601;51.356;12.458;2023-04-25T00:02:28;8.40;74.20
65034;DHT22;51601;51.356;12.458;2023-04-25T00:06:56;8.40;74.70
65034;DHT22;51601;51.356;12.458;2023-04-25T00:11:22;8.50;75.00
65034;DHT22;51601;51.356;12.458;2023-04-25T00:15:46;8.50;75.30
65034;DHT22;51601;51.356;12.458;2023-04-25T00:20:11;8.60;75.50
65034;DHT22;51601;51.356;12.458;2023-04-25T00:24:37;8.60;75.90
65034;DHT22;51601;51.356;12.458;2023-04-25T00:29:01;8.60;75.90
65034;DHT22;51601;51.356;12.458;2023-04-25T00:33:26;8.60;76.90
65034;DHT22;51601;51.356;12.458;2023-04-25T00:37:50;8.60;76.70
65034;DHT22;51601;51.356;12.458;2023-04-25T00:42:16;8.60;77.30
65034;DHT22;51601;51.356;12.458;2023-04-25T00:46:42;8.50;77.70
65034;DHT22;51601;51.356;12.458;2023-04-25T00:51:07;8.40;78.00
65034;DHT22;51601;51.356;12.458;2023-04-25T00:55:31;8.30;78.40
65034;DHT22;51601;51.356;12.458;2023-04-25T00:59:59;8.10;78.90
65034;DHT22;51601;51.356;12.458;2023-04-25T01:04:24;8.00;79.50
65034;DHT22;51601;51.356;12.458;2023-04-25T01:08:48;7.80;80.20
65034;DHT22;51601;51.356;12.458;2023-04-25T01:13:12;7.70;80.90
65034;DHT22;51601;51.356;12.458;2023-04-25T01:17:38;7.60;81.60
65034;DHT22;51601;51.356;12.458;2023-04-25T01:22:05;7.50;82.60
65034;DHT22;51601;51.356;12.458;2023-04-25T01:26:29;7.40;83.60
65034;DHT22;51601;51.356;12.458;2023-04-25T01:30:54;7.30;84.80
65034;DHT22;51601;51.356;12.458;2023-04-25T01:35:18;7.30;86.10
65034;DHT22;51601;51.356;12.458;2023-04-25T01:39:44;7.20;87.10
65034;DHT22;51601;51.356;12.458;2023-04-25T01:44:08;7.20;88.10
65034;DHT22;51601;51.356;12.458;2023-04-25T01:48:32;7.20;88.70
65034;DHT22;51601;51.356;12.458;2023-04-25T01:52:57;7.10;89.30
65034;DHT22;51601;51.356;12.458;2023-04-25T01:57:22;7.10;89.70
65034;DHT22;51601;51.356;12.458;2023-04-25T02:01:48;7.10;89.80
65034;DHT22;51601;51.356;12.458;2023-04-25T02:06:20;7.00;89.80
65034;DHT22;51601;51.356;12.458;2023-04-25T02:10:46;7.00;89.70
65034;DHT22;51601;51.356;12.458;2023-04-25T02:15:15;7.00;89.40
65034;DHT22;51601;51.356;12.458;2023-04-25T02:19:52;7.00;89.30
65034;DHT22;51601;51.356;12.458;2023-04-25T02:24:17;7.00;89.20
65034;DHT22;51601;51.356;12.458;2023-04-25T02:28:41;6.90;89.00
65034;DHT22;51601;51.356;12.458;2023-04-25T02:33:06;6.90;88.70
65034;DHT22;51601;51.356;12.458;2023-04-25T02:37:31;6.80;88.70
65034;DHT22;51601;51.356;12.458;2023-04-25T02:41:56;6.80;89.10
65034;DHT22;51601;51.356;12.458;2023-04-25T02:46:20;6.80;89.80
65034;DHT22;51601;51.356;12.458;2023-04-25T02:51:01;6.70;90.00
65034;DHT22;51601;51.356;12.458;2023-04-25T02:55:25;6.60;90.10
65034;DHT22;51601;51.356;12.458;2023-04-25T02:59:51;6.50;90.50
65034;DHT22;51601;51.356;12.458;2023-04-25T03:04:16;6.40;90.80
65034;DHT22;51601;51.356;12.458;2023-04-25T03:08:43;6.40;91.20
65034;DHT22;51601;51.356;12.458;2023-04-25T03:13:07;6.30;91.40
65034;DHT22;51601;51.356;12.458;2023-04-25T03:17:32;6.30;91.60
65034;DHT22;51601;51.356;12.458;2023-04-25T03:21:56;6.20;91.70
65034;DHT22;51601;51.356;12.458;2023-04-25T03:26:22;6.20;92.00
65034;DHT22;51601;51.356;12.458;2023-04-25T03:30:47;6.10;92.30
65034;DHT22;51601;51.356;12.458;2023-04-25T03:35:11;6.10;92.70
65034;DHT22;51601;51.356;12.458;2023-04-25T03:39:37;6.10;93.10
65034;DHT22;51601;51.356;12.458;2023-04-25T03:44:03;6.10;93.40
65034;DHT22;51601;51.356;12.458;2023-04-25T03:48:28;6.10;93.60
65034;DHT22;51601;51.356;12.458;2023-04-25T03:52:47;6.10;93.80
65034;DHT22;51601;51.356;12.458;2023-04-25T03:57:11;6.10;94.10
65034;DHT22;51601;51.356;12.458;2023-04-25T04:01:39;6.00;94.20
65034;DHT22;51601;51.356;12.458;2023-04-25T04:06:04;6.10;94.30
65034;DHT22;51601;51.356;12.458;2023-04-25T04:10:33;6.10;94.20
65034;DHT22;51601;51.356;12.458;2023-04-25T04:14:58;6.10;94.50
65034;DHT22;51601;51.356;12.458;2023-04-25T04:19:23;6.30;95.00
65034;DHT22;51601;51.356;12.458;2023-04-25T04:24:00;6.60;95.10
65034;DHT22;51601;51.356;12.458;2023-04-25T04:28:34;7.00;94.80
65034;DHT22;51601;51.356;12.458;2023-04-25T04:33:10;7.50;93.50
65034;DHT22;51601;51.356;12.458;2023-04-25T04:37:37;8.00;91.30
65034;DHT22;51601;51.356;12.458;2023-04-25T04:42:03;8.50;89.10
65034;DHT22;51601;51.356;12.458;2023-04-25T04:46:59;9.00;84.50
65034;DHT22;51601;51.356;12.458;2023-04-25T04:51:35;9.60;80.50
65034;DHT22;51601;51.356;12.458;2023-04-25T04:56:11;10.20;76.90
65034;DHT22;51601;51.356;12.458;2023-04-25T05:00:54;10.80;74.70
65034;DHT22;51601;51.356;12.458;2023-04-25T05:05:30;11.50;71.80
65034;DHT22;51601;51.356;12.458;2023-04-25T05:10:27;12.00;68.90
65034;DHT22;51601;51.356;12.458;2023-04-25T05:14:52;12.50;66.10
65034;DHT22;51601;51.356;12.458;2023-04-25T05:19:35;13.00;64.50
65034;DHT22;51601;51.356;12.458;2023-04-25T05:24:17;13.60;63.00
65034;DHT22;51601;51.356;12.458;2023-04-25T05:28:59;14.20;61.20
65034;DHT22;51601;51.356;12.458;2023-04-25T05:33:44;14.70;59.90
65034;DHT22;51601;51.356;12.458;2023-04-25T05:38:08;15.40;57.40
65034;DHT22;51601;51.356;12.458;2023-04-25T05:42:55;15.80;55.90
65034;DHT22;51601;51.356;12.458;2023-04-25T05:47:48;16.20;53.90
65034;DHT22;51601;51.356;12.458;2023-04-25T05:52:19;16.30;52.80
65034;DHT22;51601;51.356;12.458;2023-04-25T05:56:51;16.50;51.60
65034;DHT22;51601;51.356;12.458;2023-04-25T06:01:15;16.70;51.10
65034;DHT22;51601;51.356;12.458;2023-04-25T06:05:39;17.00;50.70
65034;DHT22;51601;51.356;12.458;2023-04-25T06:10:07;17.40;49.60
65034;DHT22;51601;51.356;12.458;2023-04-25T06:14:33;17.70;48.80
65034;DHT22;51601;51.356;12.458;2023-04-25T06:18:57;18.00;47.70
65034;DHT22;51601;51.356;12.458;2023-04-25T06:23:21;18.20;47.00
65034;DHT22;51601;51.356;12.458;2023-04-25T06:27:59;18.40;46.50
65034;DHT22;51601;51.356;12.458;2023-04-25T06:32:23;18.40;46.40
65034;DHT22;51601;51.356;12.458;2023-04-25T06:36:51;18.40;45.60
65034;DHT22;51601;51.356;12.458;2023-04-25T06:41:16;18.60;46.20
65034;DHT22;51601;51.356;12.458;2023-04-25T06:45:41;18.80;45.40
65034;DHT22;51601;51.356;12.458;2023-04-25T06:50:10;18.10;44.80
65034;DHT22;51601;51.356;12.458;2023-04-25T06:54:34;16.90;46.20
65034;DHT22;51601;51.356;12.458;2023-04-25T06:59:12;15.70;48.00
65034;DHT22;51601;51.356;12.458;2023-04-25T07:03:40;14.80;50.30
65034;DHT22;51601;51.356;12.458;2023-04-25T07:08:10;14.00;51.90
65034;DHT22;51601;51.356;12.458;2023-04-25T07:12:34;13.40;53.60
65034;DHT22;51601;51.356;12.458;2023-04-25T07:16:58;12.80;55.00
65034;DHT22;51601;51.356;12.458;2023-04-25T07:21:26;12.30;56.50
65034;DHT22;51601;51.356;12.458;2023-04-25T07:25:51;11.80;57.90
65034;DHT22;51601;51.356;12.458;2023-04-25T07:30:17;11.50;59.00
65034;DHT22;51601;51.356;12.458;2023-04-25T07:34:41;11.30;60.20
65034;DHT22;51601;51.356;12.458;2023-04-25T07:39:07;11.00;61.10
65034;DHT22;51601;51.356;12.458;2023-04-25T07:43:33;10.90;61.80
65034;DHT22;51601;51.356;12.458;2023-04-25T07:47:58;10.80;62.50
65034;DHT22;51601;51.356;12.458;2023-04-25T07:52:25;10.70;63.10
65034;DHT22;51601;51.356;12.458;2023-04-25T07:56:58;10.70;63.50
65034;DHT22;51601;51.356;12.458;2023-04-25T08:01:25;10.60;63.70
65034;DHT22;51601;51.356;12.458;2023-04-25T08:05:53;10.50;64.10
65034;DHT22;51601;51.356;12.458;2023-04-25T08:10:20;10.40;64.50
65034;DHT22;51601;51.356;12.458;2023-04-25T08:14:47;10.30;64.40
65034;DHT22;51601;51.356;12.458;2023-04-25T08:19:11;10.20;64.20
65034;DHT22;51601;51.356;12.458;2023-04-25T08:23:35;10.20;64.00
65034;DHT22;51601;51.356;12.458;2023-04-25T08:28:06;10.20;63.90
65034;DHT22;51601;51.356;12.458;2023-04-25T08:32:32;10.40;63.90
65034;DHT22;51601;51.356;12.458;2023-04-25T08:37:16;10.60;63.50
65034;DHT22;51601;51.356;12.458;2023-04-25T08:41:49;10.80;62.80
65034;DHT22;51601;51.356;12.458;2023-04-25T08:46:18;11.10;62.40
65034;DHT22;51601;51.356;12.458;2023-04-25T08:51:10;11.40;61.70
65034;DHT22;51601;51.356;12.458;2023-04-25T08:55:42;11.60;60.60
65034;DHT22;51601;51.356;12.458;2023-04-25T09:00:07;11.70;60.30
65034;DHT22;51601;51.356;12.458;2023-04-25T09:04:34;11.70;60.20
65034;DHT22;51601;51.356;12.458;2023-04-25T09:09:03;11.70;59.90
65034;DHT22;51601;51.356;12.458;2023-04-25T09:13:29;11.70;59.60
65034;DHT22;51601;51.356;12.458;2023-04-25T09:18:22;11.90;59.60
65034;DHT22;51601;51.356;12.458;2023-04-25T09:23:04;12.10;59.30
65034;DHT22;51601;51.356;12.458;2023-04-25T09:27:33;12.30;59.00
65034;DHT22;51601;51.356;12.458;2023-04-25T09:32:15;12.50;58.90
65034;DHT22;51601;51.356;12.458;2023-04-25T09:36:40;12.60;58.30
65034;DHT22;51601;51.356;12.458;2023-04-25T09:41:23;12.80;57.70
65034;DHT22;51601;51.356;12.458;2023-04-25T09:45:54;12.90;57.60
65034;DHT22;51601;51.356;12.458;2023-04-25T09:50:22;13.00;56.90
65034;DHT22;51601;51.356;12.458;2023-04-25T09:54:57;12.90;56.40
65034;DHT22;51601;51.356;12.458;2023-04-25T09:59:28;12.70;56.80
65034;DHT22;51601;51.356;12.458;2023-04-25T10:03:56;12.50;57.30
65034;DHT22;51601;51.356;12.458;2023-04-25T10:08:52;12.30;57.60
65034;DHT22;51601;51.356;12.458;2023-04-25T10:13:18;12.20;57.90
65034;DHT22;51601;51.356;12.458;2023-04-25T10:17:44;12.00;57.80
65034;DHT22;51601;51.356;12.458;2023-04-25T10:22:14;11.90;57.90
65034;DHT22;51601;51.356;12.458;2023-04-25T10:26:39;11.60;58.30
65034;DHT22;51601;51.356;12.458;2023-04-25T10:31:06;11.60;59.10
65034;DHT22;51601;51.356;12.458;2023-04-25T10:35:33;11.60;59.30
65034;DHT22;51601;51.356;12.458;2023-04-25T10:40:08;11.80;59.40
65034;DHT22;51601;51.356;12.458;2023-04-25T10:44:34;12.00;59.40
65034;DHT22;51601;51.356;12.458;2023-04-25T10:49:01;12.20;58.60
65034;DHT22;51601;51.356;12.458;2023-04-25T10:53:33;12.30;58.40
65034;DHT22;51601;51.356;12.458;2023-04-25T10:57:58;12.30;57.80
65034;DHT22;51601;51.356;12.458;2023-04-25T11:02:26;12.20;57.50
65034;DHT22;51601;51.356;12.458;2023-04-25T11:07:00;12.00;57.50
65034;DHT22;51601;51.356;12.458;2023-04-25T11:11:29;11.70;58.00
65034;DHT22;51601;51.356;12.458;2023-04-25T11:15:55;11.60;58.90
65034;DHT22;51601;51.356;12.458;2023-04-25T11:20:34;11.50;59.30
65034;DHT22;51601;51.356;12.458;2023-04-25T11:25:04;11.50;59.30
65034;DHT22;51601;51.356;12.458;2023-04-25T11:29:30;11.30;59.40
65034;DHT22;51601;51.356;12.458;2023-04-25T11:33:57;11.20;59.60
65034;DHT22;51601;51.356;12.458;2023-04-25T11:38:21;11.00;59.60
65034;DHT22;51601;51.356;12.458;2023-04-25T11:42:47;10.90;59.90
65034;DHT22;51601;51.356;12.458;2023-04-25T11:47:11;10.90;60.00
65034;DHT22;51601;51.356;12.458;2023-04-25T11:51:40;10.90;60.00
65034;DHT22;51601;51.356;12.458;2023-04-25T11:56:09;10.90;59.70
65034;DHT22;51601;51.356;12.458;2023-04-25T12:00:34;10.90;59.10
65034;DHT22;51601;51.356;12.458;2023-04-25T12:04:59;11.00;58.60
65034;DHT22;51601;51.356;12.458;2023-04-25T12:09:51;11.20;58.80
65034;DHT22;51601;51.356;12.458;2023-04-25T12:14:23;11.20;57.60
65034;DHT22;51601;51.356;12.458;2023-04-25T12:18:51;11.30;57.10
65034;DHT22;51601;51.356;12.458;2023-04-25T12:23:16;11.30;56.70
65034;DHT22;51601;51.356;12.458;2023-04-25T12:27:41;11.30;57.00
65034;DHT22;51601;51.356;12.458;2023-04-25T12:32:06;11.40;57.30
65034;DHT22;51601;51.356;12.458;2023-04-25T12:36:30;11.70;57.00
65034;DHT22;51601;51.356;12.458;2023-04-25T12:40:55;12.10;56.00
65034;DHT22;51601;51.356;12.458;2023-04-25T12:45:21;12.30;54.90
65034;DHT22;51601;51.356;12.458;2023-04-25T12:49:45;12.20;53.60
65034;DHT22;51601;51.356;12.458;2023-04-25T12:54:09;12.00;53.50
65034;DHT22;51601;51.356;12.458;2023-04-25T12:58:34;11.80;53.40
65034;DHT22;51601;51.356;12.458;2023-04-25T13:02:59;11.70;53.70
65034;DHT22;51601;51.356;12.458;2023-04-25T13:07:23;11.60;53.30
65034;DHT22;51601;51.356;12.458;2023-04-25T13:11:47;11.50;51.50
65034;DHT22;51601;51.356;12.458;2023-04-25T13:16:11;11.40;50.80
65034;DHT22;51601;51.356;12.458;2023-04-25T13:20:38;11.30;50.60
65034;DHT22;51601;51.356;12.458;2023-04-25T13:25:02;11.20;50.00
65034;DHT22;51601;51.356;12.458;2023-04-25T13:29:26;11.20;49.90
65034;DHT22;51601;51.356;12.458;2023-04-25T13:33:50;11.00;49.80
65034;DHT22;51601;51.356;12.458;2023-04-25T13:38:17;11.00;49.60
65034;DHT22;51601;51.356;12.458;2023-04-25T13:42:41;10.90;49.60
65034;DHT22;51601;51.356;12.458;2023-04-25T13:47:06;11.00;50.20
65034;DHT22;51601;51.356;12.458;2023-04-25T13:51:31;11.20;50.50
65034;DHT22;51601;51.356;12.458;2023-04-25T13:55:57;11.50;50.70
65034;DHT22;51601;51.356;12.458;2023-04-25T14:00:21;11.90;50.30
65034;DHT22;51601;51.356;12.458;2023-04-25T14:04:45;12.20;49.80
65034;DHT22;51601;51.356;12.458;2023-04-25T14:09:09;12.40;49.40
65034;DHT22;51601;51.356;12.458;2023-04-25T14:13:37;12.60;48.30
65034;DHT22;51601;51.356;12.458;2023-04-25T14:18:01;12.70;47.60
65034;DHT22;51601;51.356;12.458;2023-04-25T14:22:25;12.70;47.00
65034;DHT22;51601;51.356;12.458;2023-04-25T14:26:50;12.70;47.00
65034;DHT22;51601;51.356;12.458;2023-04-25T14:31:16;12.70;46.20
65034;DHT22;51601;51.356;12.458;2023-04-25T14:35:40;12.60;45.30
65034;DHT22;51601;51.356;12.458;2023-04-25T14:40:05;12.60;44.80
65034;DHT22;51601;51.356;12.458;2023-04-25T14:44:30;12.40;45.00
65034;DHT22;51601;51.356;12.458;2023-04-25T14:48:55;12.30;45.60
65034;DHT22;51601;51.356;12.458;2023-04-25T14:53:20;12.20;45.80
65034;DHT22;51601;51.356;12.458;2023-04-25T14:57:44;12.10;46.10
65034;DHT22;51601;51.356;12.458;2023-04-25T15:02:08;12.10;46.40
65034;DHT22;51601;51.356;12.458;2023-04-25T15:06:35;12.20;45.80
65034;DHT22;51601;51.356;12.458;2023-04-25T15:10:59;12.20;45.80
65034;DHT22;51601;51.356;12.458;2023-04-25T15:15:23;12.30;46.30
65034;DHT22;51601;51.356;12.458;2023-04-25T15:19:51;12.30;46.70
65034;DHT22;51601;51.356;12.458;2023-04-25T15:24:21;12.30;46.90
65034;DHT22;51601;51.356;12.458;2023-04-25T15:28:45;12.20;46.50
65034;DHT22;51601;51.356;12.458;2023-04-25T15:33:13;12.20;46.60
65034;DHT22;51601;51.356;12.458;2023-04-25T15:37:37;12.10;46.60
65034;DHT22;51601;51.356;12.458;2023-04-25T15:42:03;12.10;46.60
65034;DHT22;51601;51.356;12.458;2023-04-25T15:46:27;12.00;46.70
65034;DHT22;51601;51.356;12.458;2023-04-25T15:50:52;11.90;47.00
65034;DHT22;51601;51.356;12.458;2023-04-25T15:55:17;11.80;47.40
65034;DHT22;51601;51.356;12.458;2023-04-25T15:59:44;11.80;47.60
65034;DHT22;51601;51.356;12.458;2023-04-25T16:04:07;11.70;47.50
65034;DHT22;51601;51.356;12.458;2023-04-25T16:08:32;11.60;47.70
65034;DHT22;51601;51.356;12.458;2023-04-25T16:12:57;11.60;47.80
65034;DHT22;51601;51.356;12.458;2023-04-25T16:17:22;11.50;47.90
65034;DHT22;51601;51.356;12.458;2023-04-25T16:21:47;11.40;48.10
65034;DHT22;51601;51.356;12.458;2023-04-25T16:26:11;11.30;47.70
65034;DHT22;51601;51.356;12.458;2023-04-25T16:30:35;11.10;47.90
65034;DHT22;51601;51.356;12.458;2023-04-25T16:35:00;11.00;48.30
65034;DHT22;51601;51.356;12.458;2023-04-25T16:39:25;10.90;48.90
65034;DHT22;51601;51.356;12.458;2023-04-25T16:43:49;10.80;49.50
65034;DHT22;51601;51.356;12.458;2023-04-25T16:48:13;10.70;50.00
65034;DHT22;51601;51.356;12.458;2023-04-25T16:52:39;10.60;50.60
65034;DHT22;51601;51.356;12.458;2023-04-25T16:57:06;10.60;51.10
65034;DHT22;51601;51.356;12.458;2023-04-25T17:01:32;10.50;51.30
65034;DHT22;51601;51.356;12.458;2023-04-25T17:05:56;10.40;51.60
65034;DHT22;51601;51.356;12.458;2023-04-25T17:10:24;10.40;51.80
65034;DHT22;51601;51.356;12.458;2023-04-25T17:14:49;10.30;52.00
65034;DHT22;51601;51.356;12.458;2023-04-25T17:19:19;10.20;52.10
65034;DHT22;51601;51.356;12.458;2023-04-25T17:23:43;10.10;51.80
65034;DHT22;51601;51.356;12.458;2023-04-25T17:28:09;10.00;52.00
65034;DHT22;51601;51.356;12.458;2023-04-25T17:32:34;9.90;52.30
65034;DHT22;51601;51.356;12.458;2023-04-25T17:36:58;9.70;52.60
65034;DHT22;51601;51.356;12.458;2023-04-25T17:41:25;9.70;53.00
65034;DHT22;51601;51.356;12.458;2023-04-25T17:45:51;9.60;53.30
65034;DHT22;51601;51.356;12.458;2023-04-25T17:50:24;9.50;53.60
65034;DHT22;51601;51.356;12.458;2023-04-25T17:54:49;9.50;54.00
65034;DHT22;51601;51.356;12.458;2023-04-25T17:59:13;9.40;54.20
65034;DHT22;51601;51.356;12.458;2023-04-25T18:03:39;9.30;54.50
65034;DHT22;51601;51.356;12.458;2023-04-25T18:08:07;9.10;54.80
65034;DHT22;51601;51.356;12.458;2023-04-25T18:12:31;9.00;55.50
65034;DHT22;51601;51.356;12.458;2023-04-25T18:16:55;8.80;55.70
65034;DHT22;51601;51.356;12.458;2023-04-25T18:21:21;8.60;55.90
65034;DHT22;51601;51.356;12.458;2023-04-25T18:25:46;8.50;56.30
65034;DHT22;51601;51.356;12.458;2023-04-25T18:30:13;8.30;56.60
65034;DHT22;51601;51.356;12.458;2023-04-25T18:34:37;8.20;57.00
65034;DHT22;51601;51.356;12.458;2023-04-25T18:39:05;8.00;57.20
65034;DHT22;51601;51.356;12.458;2023-04-25T18:43:43;8.00;57.50
65034;DHT22;51601;51.356;12.458;2023-04-25T18:48:07;7.90;57.80
65034;DHT22;51601;51.356;12.458;2023-04-25T18:52:32;7.80;58.10
65034;DHT22;51601;51.356;12.458;2023-04-25T18:57:00;7.80;58.60
65034;DHT22;51601;51.356;12.458;2023-04-25T19:01:25;7.80;59.00
65034;DHT22;51601;51.356;12.458;2023-04-25T19:05:49;7.90;59.10
65034;DHT22;51601;51.356;12.458;2023-04-25T19:10:13;7.90;59.10
65034;DHT22;51601;51.356;12.458;2023-04-25T19:14:39;8.00;59.20
65034;DHT22;51601;51.356;12.458;2023-04-25T19:19:05;8.00;59.20
65034;DHT22;51601;51.356;12.458;2023-04-25T19:23:30;8.10;59.20
65034;DHT22;51601;51.356;12.458;2023-04-25T19:27:54;8.10;59.10
65034;DHT22;51601;51.356;12.458;2023-04-25T19:32:20;8.10;59.00
65034;DHT22;51601;51.356;12.458;2023-04-25T19:36:44;8.20;58.90
65034;DHT22;51601;51.356;12.458;2023-04-25T19:41:08;8.30;58.90
65034;DHT22;51601;51.356;12.458;2023-04-25T19:45:33;8.30;58.90
65034;DHT22;51601;51.356;12.458;2023-04-25T19:49:59;8.30;58.90
65034;DHT22;51601;51.356;12.458;2023-04-25T19:54:23;8.30;59.30
65034;DHT22;51601;51.356;12.458;2023-04-25T19:58:48;8.40;59.70
65034;DHT22;51601;51.356;12.458;2023-04-25T20:03:12;8.40;60.10
65034;DHT22;51601;51.356;12.458;2023-04-25T20:07:42;8.30;60.30
65034;DHT22;51601;51.356;12.458;2023-04-25T20:12:06;8.30;61.20
65034;DHT22;51601;51.356;12.458;2023-04-25T20:16:33;8.30;62.30
65034;DHT22;51601;51.356;12.458;2023-04-25T20:20:58;8.20;63.30
65034;DHT22;51601;51.356;12.458;2023-04-25T20:25:25;8.10;64.80
65034;DHT22;51601;51.356;12.458;2023-04-25T20:29:49;8.10;64.70
65034;DHT22;51601;51.356;12.458;2023-04-25T20:34:17;8.00;65.00
65034;DHT22;51601;51.356;12.458;2023-04-25T20:38:45;7.90;65.00
65034;DHT22;51601;51.356;12.458;2023-04-25T20:43:11;7.90;65.10
65034;DHT22;51601;51.356;12.458;2023-04-25T20:47:35;7.80;64.90
65034;DHT22;51601;51.356;12.458;2023-04-25T20:52:00;7.80;64.60
65034;DHT22;51601;51.356;12.458;2023-04-25T20:56:25;7.70;64.40
65034;DHT22;51601;51.356;12.458;2023-04-25T21:00:54;7.60;64.30
65034;DHT22;51601;51.356;12.458;2023-04-25T21:05:19;7.50;64.40
65034;DHT22;51601;51.356;12.458;2023-04-25T21:09:43;7.30;64.50
65034;DHT22;51601;51.356;12.458;2023-04-25T21:14:08;7.20;64.80
65034;DHT22;51601;51.356;12.458;2023-04-25T21:18:34;7.10;65.20
65034;DHT22;51601;51.356;12.458;2023-04-25T21:22:58;7.10;65.70
65034;DHT22;51601;51.356;12.458;2023-04-25T21:27:23;7.10;66.10
65034;DHT22;51601;51.356;12.458;2023-04-25T21:31:48;7.10;67.10
65034;DHT22;51601;51.356;12.458;2023-04-25T21:36:14;7.20;66.70
65034;DHT22;51601;51.356;12.458;2023-04-25T21:40:39;7.20;66.80
65034;DHT22;51601;51.356;12.458;2023-04-25T21:45:04;7.30;67.00
65034;DHT22;51601;51.356;12.458;2023-04-25T21:49:30;7.30;67.20
65034;DHT22;51601;51.356;12.458;2023-04-25T21:53:58;7.40;67.30
65034;DHT22;51601;51.356;12.458;2023-04-25T21:58:26;7.40;67.10
65034;DHT22;51601;51.356;12.458;2023-04-25T22:02:51;7.40;67.10
65034;DHT22;51601;51.356;12.458;2023-04-25T22:07:15;7.40;67.20
65034;DHT22;51601;51.356;12.458;2023-04-25T22:11:41;7.40;67.50
65034;DHT22;51601;51.356;12.458;2023-04-25T22:16:05;7.40;67.70
65034;DHT22;51601;51.356;12.458;2023-04-25T22:20:33;7.40;67.80
65034;DHT22;51601;51.356;12.458;2023-04-25T22:24:58;7.30;67.70
65034;DHT22;51601;51.356;12.458;2023-04-25T22:29:24;7.20;67.80
65034;DHT22;51601;51.356;12.458;2023-04-25T22:33:49;7.00;68.00
65034;DHT22;51601;51.356;12.458;2023-04-25T22:38:12;6.90;68.20
65034;DHT22;51601;51.356;12.458;2023-04-25T22:42:37;6.90;68.50
65034;DHT22;51601;51.356;12.458;2023-04-25T22:47:03;6.80;68.70
65034;DHT22;51601;51.356;12.458;2023-04-25T22:51:27;6.80;69.00
65034;DHT22;51601;51.356;12.458;2023-04-25T22:55:54;6.80;69.00
65034;DHT22;51601;51.356;12.458;2023-04-25T23:00:18;6.70;69.00
65034;DHT22;51601;51.356;12.458;2023-04-25T23:04:45;6.60;69.00
65034;DHT22;51601;51.356;12.458;2023-04-25T23:09:09;6.50;69.30
65034;DHT22;51601;51.356;12.458;2023-04-25T23:13:34;6.40;69.60
65034;DHT22;51601;51.356;12.458;2023-04-25T23:17:58;6.30;69.90
65034;DHT22;51601;51.356;12.458;2023-04-25T23:22:24;6.20;70.30
65034;DHT22;51601;51.356;12.458;2023-04-25T23:26:48;6.20;70.80
65034;DHT22;51601;51.356;12.458;2023-04-25T23:31:12;6.00;71.20
65034;DHT22;51601;51.356;12.458;2023-04-25T23:35:36;6.00;71.60
65034;DHT22;51601;51.356;12.458;2023-04-25T23:40:01;5.90;71.90
65034;DHT22;51601;51.356;12.458;2023-04-25T23:44:30;5.80;72.30
65034;DHT22;51601;51.356;12.458;2023-04-25T23:48:54;5.80;72.60
65034;DHT22;51601;51.356;12.458;2023-04-25T23:53:18;5.70;73.00
65034;DHT22;51601;51.356;12.458;2023-04-25T23:57:43;5.60;73.30
